• Join FlightAware (Why Join?)
  • Login
  • US Flag 
04:33PM EDT


 

Airport Tracker/Info


-or-


 

Live Flight TrackerFlight Track Log ✈ SWA1435 ✈ 19-Apr-2013 ✈ KSTL - KOMA

Flight Track Log - Related Links

Times and Time Zones

All times are in EDT time to prevent confusion due to time zone crossing. See the SWA1435 flight status page for this flight to view local times or setup timezone preferences in your user account.

Time Position Orientation Groundspeed Altitude Reporting Facility
EDT Latitude Longitude Course Direction KTS MPH feet Rate Location/Type
09:23AM 38.7511 -90.3231 305° West 130 150 2,700  Level FAA TRACON SMA TRACON (SMA)
09:24AM 38.7594 -90.3383 305° West 160 184 3,400 3,060 Climbing FAA TRACON SMA TRACON (SMA)
09:24AM 38.7697 -90.3600 301° West 184 212 4,800 3,060 Climbing FAA TRACON SMA TRACON (SMA)
09:24AM 38.7786 -90.3803 299° West 202 232 5,500 3,060 Climbing FAA TRACON SMA TRACON (SMA)
09:25AM 38.7892 -90.4014 303° West 225 259 6,800 4,200 Climbing FAA TRACON SMA TRACON (SMA)
09:25AM 38.8028 -90.4294 302° West 241 277 8,300 3,900 Climbing FAA TRACON SMA TRACON (SMA)
09:25AM 38.8142 -90.4525 302° West 248 285 9,500 3,600 Climbing FAA TRACON SMA TRACON (SMA)
09:26AM 38.8261 -90.4761 303° West 254 292 10,700 2,760 Climbing FAA TRACON SMA TRACON (SMA)
09:26AM 38.8422 -90.5092 302° West 278 320 11,300 2,400 Climbing FAA TRACON SMA TRACON (SMA)
09:26AM 38.8569 -90.5378 303° West 304 350 12,300 3,060 Climbing FAA TRACON SMA TRACON (SMA)
09:27AM 38.8719 -90.5672 303° West 319 367 13,400 3,840 Climbing FAA TRACON SMA TRACON (SMA)
09:27AM 38.8911 -90.6050 303° West 330 380 14,800 3,900 Climbing FAA TRACON SMA TRACON (SMA)
09:27AM 38.9072 -90.6356 304° West 334 384 16,000 3,360 Climbing FAA TRACON SMA TRACON (SMA)
09:28AM 38.9228 -90.6669 303° West 338 389 17,100 3,960 Climbing FAA TRACON SMA TRACON (SMA)
09:28AM 38.9428 -90.7067 303° West 343 395 18,600 3,720 Climbing FAA TRACON SMA TRACON (SMA)
09:28AM 38.9589 -90.7389 303° West 348 400 19,600 2,880 Climbing FAA TRACON SMA TRACON (SMA)
09:29AM 38.9744 -90.7722 301° West 352 405 20,600 3,180 Climbing FAA TRACON SMA TRACON (SMA)
09:29AM 38.9953 -90.8128 303° West 356 410 21,700 3,060 Climbing FAA TRACON SMA TRACON (SMA)
09:29AM 39.0125 -90.8467 303° West 362 417 22,600 2,460 Climbing FAA TRACON SMA TRACON (SMA)
09:30AM 39.0294 -90.8806 303° West 367 422 23,400 2,460 Climbing FAA TRACON SMA TRACON (SMA)
09:30AM 39.0522 -90.9233 304° West 376 433 24,300 2,460 Climbing FAA TRACON SMA TRACON (SMA)
09:30AM 39.0706 -90.9583 304° West 382 440 25,000 2,100 Climbing FAA TRACON SMA TRACON (SMA)
09:31AM 39.0878 -90.9953 301° West 388 447 25,700 2,040 Climbing FAA TRACON SMA TRACON (SMA)
09:31AM 39.1100 -91.0419 302° West 396 456 26,500 2,220 Climbing FAA TRACON SMA TRACON (SMA)
09:31AM 39.1308 -91.0894 299° West 398 458 27,300 2,160 Climbing FAA TRACON SMA TRACON (SMA)
09:32AM 39.1444 -91.1183 301° West 403 464 27,800 1,800 Climbing FAA TRACON SMA TRACON (SMA)
09:32AM 39.1606 -91.1578 298° West 405 466 28,400 1,500 Climbing FAA TRACON SMA TRACON (SMA)
09:32AM 39.1678 -91.2319 277° West 400 460 28,700 2,280 Climbing Kansas City Center
09:33AM 39.2192 -91.3611 297° West 406 467 31,300 1,980 Climbing Kansas City Center
09:34AM 39.2689 -91.4900 297° West 403 464 32,700 1,260 Climbing Kansas City Center
09:35AM 39.3319 -91.6489 297° West 410 472 34,000 600 Climbing Kansas City Center
09:36AM 39.3828 -91.7828 296° West 414 476 34,000  Level Kansas City Center
09:37AM 39.4336 -91.9122 297° West 413 475 34,000  Level Kansas City Center
09:38AM 39.4836 -92.0439 296° West 409 471 34,000  Level Kansas City Center
09:39AM 39.5347 -92.1750 297° West 409 471 34,000  Level Kansas City Center
09:40AM 39.5847 -92.3042 297° West 407 468 34,000  Level Kansas City Center
09:41AM 39.6344 -92.4344 296° West 404 465 34,000  Level Kansas City Center
09:42AM 39.7158 -92.5789 306° West 423 487 34,000  Level Kansas City Center
09:43AM 39.7892 -92.6906 311° West 412 474 34,000  Level Kansas City Center
09:44AM 39.8653 -92.8067 311° West 418 481 34,000  Level Kansas City Center
09:46AM 39.9389 -92.9219 310° West 415 478 34,000  Level Kansas City Center
09:47AM 40.0125 -93.0381 310° West 413 475 34,000  Level Kansas City Center
09:48AM 40.0856 -93.1536 310° West 414 476 34,000  Level Kansas City Center
09:49AM 40.1575 -93.2669 310° West 408 470 34,000  Level Kansas City Center
09:50AM 40.2450 -93.4064 309° West 411 473 34,000  Level Kansas City Center
09:51AM 40.3192 -93.5233 310° West 415 478 34,000  Level Kansas City Center
09:52AM 40.3914 -93.6403 309° West 415 478 34,000  Level Kansas City Center
09:53AM 40.4647 -93.7575 309° West 417 480 34,000  Level Kansas City Center
09:54AM 40.5383 -93.8744 310° West 417 480 34,000 -420 Level Kansas City Center
09:55AM 40.6000 -93.9964 304° West 410 472 33,200 -1,740 Descending Kansas City Center
09:56AM 40.6294 -94.1631 283° West 394 453 30,600 -2,220 Descending Kansas City Center
09:57AM 40.6492 -94.2978 281° West 383 441 28,500 -1,920 Descending Minneapolis Center
09:58AM 40.6697 -94.4250 282° West 367 422 26,500 -2,100 Descending Minneapolis Center
09:59AM 40.6931 -94.5700 282° West 345 397 24,200 -2,100 Descending Minneapolis Center
10:00AM 40.7106 -94.6708 283° West 337 388 22,200 -2,220 Descending Minneapolis Center
10:01AM 40.7322 -94.8117 282° West 327 376 19,700 -2,340 Descending Minneapolis Center
10:01AM 40.7528 -94.8308 325° Northwest 324 373 19,200 -1,800 Descending Minneapolis Center
10:02AM 40.7514 -94.9225 269° West 316 364 17,900 -1,920 Descending Minneapolis Center
10:03AM 40.7675 -95.0300 281° West 303 349 15,800 -2,040 Descending Minneapolis Center
10:04AM 40.8167 -95.1258 304° West 283 326 13,800 -2,040 Descending Minneapolis Center
10:05AM 40.8622 -95.2056 307° West 271 312 11,700 -2,040 Descending Minneapolis Center
10:06AM 40.9075 -95.2828 308° West 264 304 9,700 -1,860 Descending Minneapolis Center
10:07AM 40.9483 -95.3522 308° West 244 281 8,000 -1,800 Descending Minneapolis Center
10:08AM 40.9867 -95.4219 306° West 227 261 6,100 -1,740 Descending Minneapolis Center
10:09AM 41.0247 -95.4864 308° West 221 254 4,600 -1,380 Descending Minneapolis Center
10:10AM 41.0606 -95.5561 304° West 223 257 3,300 -900 Descending Minneapolis Center
10:11AM 41.1006 -95.6156 312° West 200 230 2,800 -300 Descending Minneapolis Center
10:12AM 41.1339 -95.6725 308° West 191 220 2,800  Level Minneapolis Center
10:13AM 41.1622 -95.7217 307° West 177 204 2,800  Level Minneapolis Center
10:14AM 41.1906 -95.7681 309° West 166 191 2,800  Level Minneapolis Center
10:15AM 41.2167 -95.8150 306° West 146 168 2,800 -360 Level Minneapolis Center
10:16AM 41.2436 -95.8422 323° Northwest 123 142 2,200 -600 Descending Minneapolis Center
10:16AM 41.2475 -95.8431 351° North 148 170 2,100 -720 Descending Minneapolis Center
10:17AM 41.2706 -95.8697 319° Northwest 124 143 1,500 -780 Descending Minneapolis Center
10:17AM 41.2806 -95.8739 343° North 130 150 1,300 -420 Descending Minneapolis Center
10:19AM 41.3072 -95.8994 324° Northwest 128 147 1,000 -300 Descending Minneapolis Center